sensor_id;sensor_type;location;lat;lon;timestamp;temperature;humidity
25811;DHT22;13645;52.460;13.910;2022-11-18T00:01:07;2.60;99.90
25811;DHT22;13645;52.460;13.910;2022-11-18T00:03:34;2.60;99.90
25811;DHT22;13645;52.460;13.910;2022-11-18T00:06:01;2.60;99.90
25811;DHT22;13645;52.460;13.910;2022-11-18T00:08:28;2.60;99.90
25811;DHT22;13645;52.460;13.910;2022-11-18T00:10:55;2.60;99.90
25811;DHT22;13645;52.460;13.910;2022-11-18T00:13:22;2.50;99.90
25811;DHT22;13645;52.460;13.910;2022-11-18T00:16:10;2.60;99.90
25811;DHT22;13645;52.460;13.910;2022-11-18T00:18:38;2.50;99.90
25811;DHT22;13645;52.460;13.910;2022-11-18T00:21:07;2.50;99.90
25811;DHT22;13645;52.460;13.910;2022-11-18T00:23:34;2.50;99.90
25811;DHT22;13645;52.460;13.910;2022-11-18T00:26:09;2.50;99.90
25811;DHT22;13645;52.460;13.910;2022-11-18T00:28:36;2.50;99.90
25811;DHT22;13645;52.460;13.910;2022-11-18T00:31:05;2.40;99.90
25811;DHT22;13645;52.460;13.910;2022-11-18T00:33:33;2.40;99.90
25811;DHT22;13645;52.460;13.910;2022-11-18T00:36:00;2.40;99.90
25811;DHT22;13645;52.460;13.910;2022-11-18T00:38:27;2.30;99.90
25811;DHT22;13645;52.460;13.910;2022-11-18T00:41:12;2.30;99.90
25811;DHT22;13645;52.460;13.910;2022-11-18T00:43:39;2.30;99.90
25811;DHT22;13645;52.460;13.910;2022-11-18T00:46:08;2.30;99.90
25811;DHT22;13645;52.460;13.910;2022-11-18T00:48:36;2.20;99.90
25811;DHT22;13645;52.460;13.910;2022-11-18T00:51:16;2.20;99.90
25811;DHT22;13645;52.460;13.910;2022-11-18T00:53:43;2.20;99.90
25811;DHT22;13645;52.460;13.910;2022-11-18T00:56:10;2.10;99.90
25811;DHT22;13645;52.460;13.910;2022-11-18T00:58:37;2.10;99.90
25811;DHT22;13645;52.460;13.910;2022-11-18T01:01:04;2.10;99.90
25811;DHT22;13645;52.460;13.910;2022-11-18T01:03:31;2.10;99.90
25811;DHT22;13645;52.460;13.910;2022-11-18T01:05:58;2.00;99.90
25811;DHT22;13645;52.460;13.910;2022-11-18T01:08:24;2.00;99.90
25811;DHT22;13645;52.460;13.910;2022-11-18T01:10:51;1.90;99.90
25811;DHT22;13645;52.460;13.910;2022-11-18T01:13:20;2.00;99.90
25811;DHT22;13645;52.460;13.910;2022-11-18T01:15:49;2.00;99.90
25811;DHT22;13645;52.460;13.910;2022-11-18T01:18:17;1.90;99.90
25811;DHT22;13645;52.460;13.910;2022-11-18T01:20:45;1.90;99.90
25811;DHT22;13645;52.460;13.910;2022-11-18T01:23:12;1.90;99.90
25811;DHT22;13645;52.460;13.910;2022-11-18T01:25:41;1.90;99.90
25811;DHT22;13645;52.460;13.910;2022-11-18T01:28:09;1.90;99.90
25811;DHT22;13645;52.460;13.910;2022-11-18T01:30:37;1.90;99.90
25811;DHT22;13645;52.460;13.910;2022-11-18T01:33:05;1.90;99.90
25811;DHT22;13645;52.460;13.910;2022-11-18T01:35:37;1.80;99.90
25811;DHT22;13645;52.460;13.910;2022-11-18T01:38:06;1.80;99.90
25811;DHT22;13645;52.460;13.910;2022-11-18T01:40:33;1.80;99.90
25811;DHT22;13645;52.460;13.910;2022-11-18T01:43:00;1.80;99.90
25811;DHT22;13645;52.460;13.910;2022-11-18T01:45:39;1.70;99.90
25811;DHT22;13645;52.460;13.910;2022-11-18T01:50:56;1.80;99.90
25811;DHT22;13645;52.460;13.910;2022-11-18T01:53:28;1.80;99.90
25811;DHT22;13645;52.460;13.910;2022-11-18T01:55:59;1.70;99.90
25811;DHT22;13645;52.460;13.910;2022-11-18T01:58:34;1.70;99.90
25811;DHT22;13645;52.460;13.910;2022-11-18T02:01:04;1.70;99.90
25811;DHT22;13645;52.460;13.910;2022-11-18T02:03:31;1.70;99.90
25811;DHT22;13645;52.460;13.910;2022-11-18T02:05:59;1.70;99.90
25811;DHT22;13645;52.460;13.910;2022-11-18T02:08:28;1.70;99.90
25811;DHT22;13645;52.460;13.910;2022-11-18T02:10:55;1.70;99.90
25811;DHT22;13645;52.460;13.910;2022-11-18T02:13:22;1.70;99.90
25811;DHT22;13645;52.460;13.910;2022-11-18T02:15:55;1.70;99.90
25811;DHT22;13645;52.460;13.910;2022-11-18T02:21:17;1.70;99.90
25811;DHT22;13645;52.460;13.910;2022-11-18T02:26:52;1.70;99.90
25811;DHT22;13645;52.460;13.910;2022-11-18T02:29:25;1.70;99.90
25811;DHT22;13645;52.460;13.910;2022-11-18T02:32:06;1.60;99.90
25811;DHT22;13645;52.460;13.910;2022-11-18T02:34:48;1.60;99.90
25811;DHT22;13645;52.460;13.910;2022-11-18T02:37:36;1.60;99.90
25811;DHT22;13645;52.460;13.910;2022-11-18T02:42:37;1.60;99.90
25811;DHT22;13645;52.460;13.910;2022-11-18T02:45:14;1.60;99.90
25811;DHT22;13645;52.460;13.910;2022-11-18T02:47:45;1.50;99.90
25811;DHT22;13645;52.460;13.910;2022-11-18T02:50:19;1.50;99.90
25811;DHT22;13645;52.460;13.910;2022-11-18T02:52:49;1.50;99.90
25811;DHT22;13645;52.460;13.910;2022-11-18T02:55:18;1.60;99.90
25811;DHT22;13645;52.460;13.910;2022-11-18T02:57:45;1.60;99.90
25811;DHT22;13645;52.460;13.910;2022-11-18T03:00:13;1.60;99.90
25811;DHT22;13645;52.460;13.910;2022-11-18T03:02:46;1.60;99.90
25811;DHT22;13645;52.460;13.910;2022-11-18T03:05:52;1.60;99.90
25811;DHT22;13645;52.460;13.910;2022-11-18T03:08:17;1.60;99.90
25811;DHT22;13645;52.460;13.910;2022-11-18T03:10:51;1.50;99.90
25811;DHT22;13645;52.460;13.910;2022-11-18T03:13:25;1.50;99.90
25811;DHT22;13645;52.460;13.910;2022-11-18T03:16:03;1.50;99.90
25811;DHT22;13645;52.460;13.910;2022-11-18T03:18:41;1.40;99.90
25811;DHT22;13645;52.460;13.910;2022-11-18T03:21:27;1.50;99.90
25811;DHT22;13645;52.460;13.910;2022-11-18T03:24:15;1.50;99.90
25811;DHT22;13645;52.460;13.910;2022-11-18T03:26:58;1.60;99.90
25811;DHT22;13645;52.460;13.910;2022-11-18T03:29:33;1.40;99.90
25811;DHT22;13645;52.460;13.910;2022-11-18T03:32:05;1.30;99.90
25811;DHT22;13645;52.460;13.910;2022-11-18T03:34:41;1.30;99.90
25811;DHT22;13645;52.460;13.910;2022-11-18T03:37:11;1.30;99.90
25811;DHT22;13645;52.460;13.910;2022-11-18T03:39:51;1.20;99.90
25811;DHT22;13645;52.460;13.910;2022-11-18T03:42:26;1.20;99.90
25811;DHT22;13645;52.460;13.910;2022-11-18T03:45:09;1.20;99.90
25811;DHT22;13645;52.460;13.910;2022-11-18T03:47:41;1.20;99.90
25811;DHT22;13645;52.460;13.910;2022-11-18T03:50:16;1.10;99.90
25811;DHT22;13645;52.460;13.910;2022-11-18T03:52:45;1.10;99.90
25811;DHT22;13645;52.460;13.910;2022-11-18T03:55:25;1.10;99.90
25811;DHT22;13645;52.460;13.910;2022-11-18T04:00:46;1.10;99.90
25811;DHT22;13645;52.460;13.910;2022-11-18T04:03:13;1.10;99.90
25811;DHT22;13645;52.460;13.910;2022-11-18T04:05:41;1.10;99.90
25811;DHT22;13645;52.460;13.910;2022-11-18T04:08:13;1.10;99.90
25811;DHT22;13645;52.460;13.910;2022-11-18T04:13:31;1.10;99.90
25811;DHT22;13645;52.460;13.910;2022-11-18T04:15:59;1.00;99.90
25811;DHT22;13645;52.460;13.910;2022-11-18T04:18:26;1.00;99.90
25811;DHT22;13645;52.460;13.910;2022-11-18T04:20:53;1.00;99.90
25811;DHT22;13645;52.460;13.910;2022-11-18T04:23:20;1.00;99.90
25811;DHT22;13645;52.460;13.910;2022-11-18T04:25:47;0.90;99.90
25811;DHT22;13645;52.460;13.910;2022-11-18T04:28:13;0.90;99.90
25811;DHT22;13645;52.460;13.910;2022-11-18T04:30:40;0.90;99.90
25811;DHT22;13645;52.460;13.910;2022-11-18T04:33:07;0.90;99.90
25811;DHT22;13645;52.460;13.910;2022-11-18T04:35:33;0.90;99.90
25811;DHT22;13645;52.460;13.910;2022-11-18T04:38:00;0.90;99.90
25811;DHT22;13645;52.460;13.910;2022-11-18T04:40:27;0.90;99.90
25811;DHT22;13645;52.460;13.910;2022-11-18T04:42:53;0.90;99.90
25811;DHT22;13645;52.460;13.910;2022-11-18T04:45:20;0.90;99.90
25811;DHT22;13645;52.460;13.910;2022-11-18T04:47:47;0.90;99.90
25811;DHT22;13645;52.460;13.910;2022-11-18T04:50:13;0.90;99.90
25811;DHT22;13645;52.460;13.910;2022-11-18T04:52:40;0.90;99.90
25811;DHT22;13645;52.460;13.910;2022-11-18T04:55:07;1.00;99.90
25811;DHT22;13645;52.460;13.910;2022-11-18T04:57:34;1.00;99.90
25811;DHT22;13645;52.460;13.910;2022-11-18T05:00:01;0.90;99.90
25811;DHT22;13645;52.460;13.910;2022-11-18T05:02:27;0.90;99.90
25811;DHT22;13645;52.460;13.910;2022-11-18T05:04:57;1.00;99.90
25811;DHT22;13645;52.460;13.910;2022-11-18T05:07:24;1.00;99.90
25811;DHT22;13645;52.460;13.910;2022-11-18T05:09:50;1.00;99.90
25811;DHT22;13645;52.460;13.910;2022-11-18T05:12:17;1.00;99.90
25811;DHT22;13645;52.460;13.910;2022-11-18T05:15:03;0.90;99.90
25811;DHT22;13645;52.460;13.910;2022-11-18T05:17:29;0.90;99.90
25811;DHT22;13645;52.460;13.910;2022-11-18T05:19:56;0.90;99.90
25811;DHT22;13645;52.460;13.910;2022-11-18T05:22:23;0.90;99.90
25811;DHT22;13645;52.460;13.910;2022-11-18T05:24:50;0.90;99.90
25811;DHT22;13645;52.460;13.910;2022-11-18T05:27:16;0.80;99.90
25811;DHT22;13645;52.460;13.910;2022-11-18T05:29:43;0.80;99.90
25811;DHT22;13645;52.460;13.910;2022-11-18T05:32:10;0.80;99.90
25811;DHT22;13645;52.460;13.910;2022-11-18T05:34:40;0.80;99.90
25811;DHT22;13645;52.460;13.910;2022-11-18T05:37:07;0.80;99.90
25811;DHT22;13645;52.460;13.910;2022-11-18T05:39:34;0.80;99.90
25811;DHT22;13645;52.460;13.910;2022-11-18T05:42:01;0.70;99.90
25811;DHT22;13645;52.460;13.910;2022-11-18T05:44:46;0.70;99.90
25811;DHT22;13645;52.460;13.910;2022-11-18T05:47:16;0.70;99.90
25811;DHT22;13645;52.460;13.910;2022-11-18T05:49:43;0.60;99.90
25811;DHT22;13645;52.460;13.910;2022-11-18T05:52:10;0.70;99.90
25811;DHT22;13645;52.460;13.910;2022-11-18T05:54:43;0.70;99.90
25811;DHT22;13645;52.460;13.910;2022-11-18T05:57:11;0.70;99.90
25811;DHT22;13645;52.460;13.910;2022-11-18T05:59:38;0.70;99.90
25811;DHT22;13645;52.460;13.910;2022-11-18T06:02:10;0.70;99.90
25811;DHT22;13645;52.460;13.910;2022-11-18T06:04:45;0.70;99.90
25811;DHT22;13645;52.460;13.910;2022-11-18T06:07:19;0.70;99.90
25811;DHT22;13645;52.460;13.910;2022-11-18T06:09:49;0.60;99.90
25811;DHT22;13645;52.460;13.910;2022-11-18T06:12:20;0.70;99.90
25811;DHT22;13645;52.460;13.910;2022-11-18T06:14:54;0.70;99.90
25811;DHT22;13645;52.460;13.910;2022-11-18T06:17:29;0.60;99.90
25811;DHT22;13645;52.460;13.910;2022-11-18T06:19:58;0.60;99.90
25811;DHT22;13645;52.460;13.910;2022-11-18T06:22:25;0.60;99.90
25811;DHT22;13645;52.460;13.910;2022-11-18T06:24:51;0.60;99.90
25811;DHT22;13645;52.460;13.910;2022-11-18T06:27:18;0.60;99.90
25811;DHT22;13645;52.460;13.910;2022-11-18T06:29:45;0.50;99.90
25811;DHT22;13645;52.460;13.910;2022-11-18T06:32:12;0.50;99.90
25811;DHT22;13645;52.460;13.910;2022-11-18T06:34:39;0.50;99.90
25811;DHT22;13645;52.460;13.910;2022-11-18T06:37:15;0.50;99.90
25811;DHT22;13645;52.460;13.910;2022-11-18T06:39:42;0.50;99.90
25811;DHT22;13645;52.460;13.910;2022-11-18T06:42:09;0.50;99.90
25811;DHT22;13645;52.460;13.910;2022-11-18T06:44:36;0.50;99.90
25811;DHT22;13645;52.460;13.910;2022-11-18T06:47:03;0.50;99.90
25811;DHT22;13645;52.460;13.910;2022-11-18T06:49:30;0.50;99.90
25811;DHT22;13645;52.460;13.910;2022-11-18T06:51:57;0.50;99.90
25811;DHT22;13645;52.460;13.910;2022-11-18T06:54:24;0.40;99.90
25811;DHT22;13645;52.460;13.910;2022-11-18T06:56:50;0.50;99.90
25811;DHT22;13645;52.460;13.910;2022-11-18T06:59:17;0.50;99.90
25811;DHT22;13645;52.460;13.910;2022-11-18T07:01:49;0.50;99.90
25811;DHT22;13645;52.460;13.910;2022-11-18T07:04:17;0.50;99.90
25811;DHT22;13645;52.460;13.910;2022-11-18T07:06:43;0.50;99.90
25811;DHT22;13645;52.460;13.910;2022-11-18T07:09:10;0.50;99.90
25811;DHT22;13645;52.460;13.910;2022-11-18T07:11:37;0.50;99.90
25811;DHT22;13645;52.460;13.910;2022-11-18T07:14:07;0.50;99.90
25811;DHT22;13645;52.460;13.910;2022-11-18T07:16:35;0.50;99.90
25811;DHT22;13645;52.460;13.910;2022-11-18T07:19:11;0.50;99.90
25811;DHT22;13645;52.460;13.910;2022-11-18T07:21:38;0.50;99.90
25811;DHT22;13645;52.460;13.910;2022-11-18T07:24:07;0.60;99.90
25811;DHT22;13645;52.460;13.910;2022-11-18T07:26:34;0.50;99.90
25811;DHT22;13645;52.460;13.910;2022-11-18T07:29:01;0.50;99.90
25811;DHT22;13645;52.460;13.910;2022-11-18T07:31:28;0.50;99.90
25811;DHT22;13645;52.460;13.910;2022-11-18T07:33:55;0.50;99.90
25811;DHT22;13645;52.460;13.910;2022-11-18T07:36:25;0.50;99.90
25811;DHT22;13645;52.460;13.910;2022-11-18T07:39:00;0.50;99.90
25811;DHT22;13645;52.460;13.910;2022-11-18T07:41:28;0.50;99.90
25811;DHT22;13645;52.460;13.910;2022-11-18T07:43:56;0.40;99.90
25811;DHT22;13645;52.460;13.910;2022-11-18T07:46:29;0.50;99.90
25811;DHT22;13645;52.460;13.910;2022-11-18T07:48:57;0.50;99.90
25811;DHT22;13645;52.460;13.910;2022-11-18T07:51:27;0.50;99.90
25811;DHT22;13645;52.460;13.910;2022-11-18T07:53:54;0.50;99.90
25811;DHT22;13645;52.460;13.910;2022-11-18T07:56:21;0.50;99.90
25811;DHT22;13645;52.460;13.910;2022-11-18T07:58:52;0.50;99.90
25811;DHT22;13645;52.460;13.910;2022-11-18T08:01:22;0.40;99.90
25811;DHT22;13645;52.460;13.910;2022-11-18T08:03:49;0.40;99.90
25811;DHT22;13645;52.460;13.910;2022-11-18T08:06:17;0.40;99.90
25811;DHT22;13645;52.460;13.910;2022-11-18T08:08:45;0.40;99.90
25811;DHT22;13645;52.460;13.910;2022-11-18T08:11:17;0.40;99.90
25811;DHT22;13645;52.460;13.910;2022-11-18T08:13:49;0.40;99.90
25811;DHT22;13645;52.460;13.910;2022-11-18T08:16:19;0.40;99.90
25811;DHT22;13645;52.460;13.910;2022-11-18T08:18:47;0.50;99.90
25811;DHT22;13645;52.460;13.910;2022-11-18T08:21:15;0.50;99.90
25811;DHT22;13645;52.460;13.910;2022-11-18T08:23:43;0.50;99.90
25811;DHT22;13645;52.460;13.910;2022-11-18T08:26:14;0.50;99.90
25811;DHT22;13645;52.460;13.910;2022-11-18T08:28:42;0.50;99.90
25811;DHT22;13645;52.460;13.910;2022-11-18T08:31:18;0.50;99.90
25811;DHT22;13645;52.460;13.910;2022-11-18T08:33:44;0.60;99.90
25811;DHT22;13645;52.460;13.910;2022-11-18T08:36:22;0.60;99.90
25811;DHT22;13645;52.460;13.910;2022-11-18T08:38:50;0.60;99.90
25811;DHT22;13645;52.460;13.910;2022-11-18T08:41:31;0.50;99.90
25811;DHT22;13645;52.460;13.910;2022-11-18T08:43:59;0.50;99.90
25811;DHT22;13645;52.460;13.910;2022-11-18T08:46:27;0.50;99.90
25811;DHT22;13645;52.460;13.910;2022-11-18T08:48:54;0.50;99.90
25811;DHT22;13645;52.460;13.910;2022-11-18T08:51:21;0.50;99.90
25811;DHT22;13645;52.460;13.910;2022-11-18T08:53:48;0.50;99.90
25811;DHT22;13645;52.460;13.910;2022-11-18T08:56:17;0.50;99.90
25811;DHT22;13645;52.460;13.910;2022-11-18T08:58:44;0.50;99.90
25811;DHT22;13645;52.460;13.910;2022-11-18T09:01:12;0.40;99.90
25811;DHT22;13645;52.460;13.910;2022-11-18T09:03:39;0.40;99.90
25811;DHT22;13645;52.460;13.910;2022-11-18T09:08:32;0.40;99.90
25811;DHT22;13645;52.460;13.910;2022-11-18T09:11:03;0.40;99.90
25811;DHT22;13645;52.460;13.910;2022-11-18T09:13:29;0.40;99.90
25811;DHT22;13645;52.460;13.910;2022-11-18T09:16:16;0.40;99.90
25811;DHT22;13645;52.460;13.910;2022-11-18T09:18:43;0.50;99.90
25811;DHT22;13645;52.460;13.910;2022-11-18T09:21:10;0.40;99.90
25811;DHT22;13645;52.460;13.910;2022-11-18T09:23:37;0.40;99.90
25811;DHT22;13645;52.460;13.910;2022-11-18T09:26:10;0.40;99.90
25811;DHT22;13645;52.460;13.910;2022-11-18T09:28:37;0.40;99.90
25811;DHT22;13645;52.460;13.910;2022-11-18T09:31:09;0.50;99.90
25811;DHT22;13645;52.460;13.910;2022-11-18T09:33:37;0.40;99.90
25811;DHT22;13645;52.460;13.910;2022-11-18T09:36:05;0.40;99.90
25811;DHT22;13645;52.460;13.910;2022-11-18T09:38:36;0.40;99.90
25811;DHT22;13645;52.460;13.910;2022-11-18T09:47:24;0.40;99.90
25811;DHT22;13645;52.460;13.910;2022-11-18T09:49:53;0.30;99.90
25811;DHT22;13645;52.460;13.910;2022-11-18T09:52:31;0.30;99.90
25811;DHT22;13645;52.460;13.910;2022-11-18T09:55:10;0.40;99.90
25811;DHT22;13645;52.460;13.910;2022-11-18T09:57:52;0.40;99.90
25811;DHT22;13645;52.460;13.910;2022-11-18T10:00:26;0.40;99.90
25811;DHT22;13645;52.460;13.910;2022-11-18T10:05:44;0.40;99.90
25811;DHT22;13645;52.460;13.910;2022-11-18T10:11:09;0.50;99.90
25811;DHT22;13645;52.460;13.910;2022-11-18T10:13:43;0.50;99.90
25811;DHT22;13645;52.460;13.910;2022-11-18T10:16:31;0.50;99.90
25811;DHT22;13645;52.460;13.910;2022-11-18T10:25:00;0.40;99.90
25811;DHT22;13645;52.460;13.910;2022-11-18T10:27:37;0.50;99.90
25811;DHT22;13645;52.460;13.910;2022-11-18T10:30:18;0.50;99.90
25811;DHT22;13645;52.460;13.910;2022-11-18T10:32:56;0.50;99.90
25811;DHT22;13645;52.460;13.910;2022-11-18T10:37:58;0.50;99.90
25811;DHT22;13645;52.460;13.910;2022-11-18T10:40:35;0.60;99.90
25811;DHT22;13645;52.460;13.910;2022-11-18T10:43:04;0.60;99.90
25811;DHT22;13645;52.460;13.910;2022-11-18T10:45:31;0.60;99.90
25811;DHT22;13645;52.460;13.910;2022-11-18T10:48:17;0.60;99.90
25811;DHT22;13645;52.460;13.910;2022-11-18T10:50:49;0.60;99.90
25811;DHT22;13645;52.460;13.910;2022-11-18T10:53:30;0.70;99.90
25811;DHT22;13645;52.460;13.910;2022-11-18T10:56:10;0.60;99.90
25811;DHT22;13645;52.460;13.910;2022-11-18T10:58:47;0.70;99.90
25811;DHT22;13645;52.460;13.910;2022-11-18T11:04:19;0.70;99.90
25811;DHT22;13645;52.460;13.910;2022-11-18T11:06:47;0.70;99.90
25811;DHT22;13645;52.460;13.910;2022-11-18T11:14:36;0.70;99.90
25811;DHT22;13645;52.460;13.910;2022-11-18T11:17:17;0.70;99.90
25811;DHT22;13645;52.460;13.910;2022-11-18T11:20:05;0.70;99.90
25811;DHT22;13645;52.460;13.910;2022-11-18T11:22:35;0.80;99.90
25811;DHT22;13645;52.460;13.910;2022-11-18T11:25:04;0.90;99.90
25811;DHT22;13645;52.460;13.910;2022-11-18T11:30:37;0.90;99.90
25811;DHT22;13645;52.460;13.910;2022-11-18T11:34:01;0.90;99.90
25811;DHT22;13645;52.460;13.910;2022-11-18T11:36:13;1.00;99.90
25811;DHT22;13645;52.460;13.910;2022-11-18T11:39:03;1.00;99.90
25811;DHT22;13645;52.460;13.910;2022-11-18T11:41:45;0.90;99.90
25811;DHT22;13645;52.460;13.910;2022-11-18T11:50:18;0.90;99.90
25811;DHT22;13645;52.460;13.910;2022-11-18T11:55:22;0.90;99.90
25811;DHT22;13645;52.460;13.910;2022-11-18T12:01:17;0.90;99.90
25811;DHT22;13645;52.460;13.910;2022-11-18T12:04:01;0.90;99.90
25811;DHT22;13645;52.460;13.910;2022-11-18T12:06:33;0.90;99.90
25811;DHT22;13645;52.460;13.910;2022-11-18T12:09:17;0.90;99.90
25811;DHT22;13645;52.460;13.910;2022-11-18T12:12:08;0.90;99.90
25811;DHT22;13645;52.460;13.910;2022-11-18T12:23:29;1.00;99.90
25811;DHT22;13645;52.460;13.910;2022-11-18T12:26:05;1.00;99.90
25811;DHT22;13645;52.460;13.910;2022-11-18T12:36:44;1.00;99.90
25811;DHT22;13645;52.460;13.910;2022-11-18T12:44:41;1.00;99.90
25811;DHT22;13645;52.460;13.910;2022-11-18T12:47:13;1.00;99.90
25811;DHT22;13645;52.460;13.910;2022-11-18T12:54:56;1.10;99.90
25811;DHT22;13645;52.460;13.910;2022-11-18T12:57:30;1.10;99.90
25811;DHT22;13645;52.460;13.910;2022-11-18T12:59:58;1.00;95.50
25811;DHT22;13645;52.460;13.910;2022-11-18T13:02:26;1.10;99.90
25811;DHT22;13645;52.460;13.910;2022-11-18T13:05:19;1.20;99.90
25811;DHT22;13645;52.460;13.910;2022-11-18T13:08:06;1.10;97.00
25811;DHT22;13645;52.460;13.910;2022-11-18T13:13:25;1.20;90.50
25811;DHT22;13645;52.460;13.910;2022-11-18T13:15:54;1.20;90.40
25811;DHT22;13645;52.460;13.910;2022-11-18T13:18:52;1.10;92.90
25811;DHT22;13645;52.460;13.910;2022-11-18T13:21:25;1.30;90.10
25811;DHT22;13645;52.460;13.910;2022-11-18T13:24:13;1.30;62.00
25811;DHT22;13645;52.460;13.910;2022-11-18T13:26:42;1.30;91.90
25811;DHT22;13645;52.460;13.910;2022-11-18T13:34:53;2.60;30.50
25811;DHT22;13645;52.460;13.910;2022-11-18T13:37:27;3.00;3.70
25811;DHT22;13645;52.460;13.910;2022-11-18T13:39:54;3.30;1.00
25811;DHT22;13645;52.460;13.910;2022-11-18T13:42:22;3.60;1.00
25811;DHT22;13645;52.460;13.910;2022-11-18T13:50:02;3.80;1.00
25811;DHT22;13645;52.460;13.910;2022-11-18T13:52:37;3.90;1.00
25811;DHT22;13645;52.460;13.910;2022-11-18T13:55:21;3.90;1.00
25811;DHT22;13645;52.460;13.910;2022-11-18T13:57:51;3.90;1.00
25811;DHT22;13645;52.460;13.910;2022-11-18T14:00:25;3.90;1.00
25811;DHT22;13645;52.460;13.910;2022-11-18T14:02:59;3.90;1.00
25811;DHT22;13645;52.460;13.910;2022-11-18T14:05:26;4.10;1.00
25811;DHT22;13645;52.460;13.910;2022-11-18T14:08:05;4.20;1.00
25811;DHT22;13645;52.460;13.910;2022-11-18T14:10:41;4.50;1.00
25811;DHT22;13645;52.460;13.910;2022-11-18T14:13:23;4.80;1.00
25811;DHT22;13645;52.460;13.910;2022-11-18T14:15:58;4.50;1.00
25811;DHT22;13645;52.460;13.910;2022-11-18T14:18:35;3.80;1.00
25811;DHT22;13645;52.460;13.910;2022-11-18T14:21:04;3.50;1.00
25811;DHT22;13645;52.460;13.910;2022-11-18T14:23:33;3.40;1.00
25811;DHT22;13645;52.460;13.910;2022-11-18T14:26:03;3.30;1.00
25811;DHT22;13645;52.460;13.910;2022-11-18T14:28:32;3.00;1.00
25811;DHT22;13645;52.460;13.910;2022-11-18T14:36:44;3.10;1.00
25811;DHT22;13645;52.460;13.910;2022-11-18T14:39:27;2.90;1.00
25811;DHT22;13645;52.460;13.910;2022-11-18T14:41:55;2.60;1.00
25811;DHT22;13645;52.460;13.910;2022-11-18T14:44:25;2.10;1.00
25811;DHT22;13645;52.460;13.910;2022-11-18T14:46:56;1.80;12.00
25811;DHT22;13645;52.460;13.910;2022-11-18T14:49:24;1.50;24.80
25811;DHT22;13645;52.460;13.910;2022-11-18T14:51:53;1.30;38.10
25811;DHT22;13645;52.460;13.910;2022-11-18T14:54:22;1.10;54.30
25811;DHT22;13645;52.460;13.910;2022-11-18T14:57:03;0.90;70.30
25811;DHT22;13645;52.460;13.910;2022-11-18T14:59:30;0.70;91.80
25811;DHT22;13645;52.460;13.910;2022-11-18T15:01:57;0.60;98.30
25811;DHT22;13645;52.460;13.910;2022-11-18T15:04:25;0.50;99.90
25811;DHT22;13645;52.460;13.910;2022-11-18T15:06:52;0.50;99.90
25811;DHT22;13645;52.460;13.910;2022-11-18T15:09:19;0.40;99.90
25811;DHT22;13645;52.460;13.910;2022-11-18T15:11:46;0.30;99.90
25811;DHT22;13645;52.460;13.910;2022-11-18T15:14:13;0.30;99.90
25811;DHT22;13645;52.460;13.910;2022-11-18T15:16:40;0.20;99.90
25811;DHT22;13645;52.460;13.910;2022-11-18T15:19:13;0.20;99.90
25811;DHT22;13645;52.460;13.910;2022-11-18T15:21:41;0.10;99.90
25811;DHT22;13645;52.460;13.910;2022-11-18T15:24:07;0.10;99.90
25811;DHT22;13645;52.460;13.910;2022-11-18T15:26:38;0.00;99.90
25811;DHT22;13645;52.460;13.910;2022-11-18T15:29:05;0.00;99.90
25811;DHT22;13645;52.460;13.910;2022-11-18T15:31:32;-0.10;99.90
25811;DHT22;13645;52.460;13.910;2022-11-18T15:33:59;-0.10;99.90
25811;DHT22;13645;52.460;13.910;2022-11-18T15:36:32;-0.20;99.90
25811;DHT22;13645;52.460;13.910;2022-11-18T15:38:59;-0.30;99.90
25811;DHT22;13645;52.460;13.910;2022-11-18T15:41:27;-0.30;99.90
25811;DHT22;13645;52.460;13.910;2022-11-18T15:43:56;-0.40;99.90
25811;DHT22;13645;52.460;13.910;2022-11-18T15:46:24;-0.40;99.90
25811;DHT22;13645;52.460;13.910;2022-11-18T15:48:52;-0.50;99.90
25811;DHT22;13645;52.460;13.910;2022-11-18T15:51:20;-0.50;99.90
25811;DHT22;13645;52.460;13.910;2022-11-18T15:53:47;-0.50;99.90
25811;DHT22;13645;52.460;13.910;2022-11-18T15:56:24;-0.60;99.90
25811;DHT22;13645;52.460;13.910;2022-11-18T16:01:26;-0.60;99.90
25811;DHT22;13645;52.460;13.910;2022-11-18T16:03:54;-0.70;99.90
25811;DHT22;13645;52.460;13.910;2022-11-18T16:06:21;-0.70;99.90
25811;DHT22;13645;52.460;13.910;2022-11-18T16:08:48;-0.80;99.90
25811;DHT22;13645;52.460;13.910;2022-11-18T16:11:21;-0.80;99.90
25811;DHT22;13645;52.460;13.910;2022-11-18T16:14:09;-0.90;99.90
25811;DHT22;13645;52.460;13.910;2022-11-18T16:16:37;-0.90;99.90
25811;DHT22;13645;52.460;13.910;2022-11-18T16:19:07;-1.00;99.90
25811;DHT22;13645;52.460;13.910;2022-11-18T16:21:39;-1.00;99.90
25811;DHT22;13645;52.460;13.910;2022-11-18T16:24:10;-1.00;99.90
25811;DHT22;13645;52.460;13.910;2022-11-18T16:26:37;-1.10;99.90
25811;DHT22;13645;52.460;13.910;2022-11-18T16:29:05;-1.10;99.90
25811;DHT22;13645;52.460;13.910;2022-11-18T16:31:33;-1.10;99.90
25811;DHT22;13645;52.460;13.910;2022-11-18T16:36:47;-1.20;99.90
25811;DHT22;13645;52.460;13.910;2022-11-18T16:39:16;-1.30;99.90
25811;DHT22;13645;52.460;13.910;2022-11-18T16:41:44;-1.30;99.90
25811;DHT22;13645;52.460;13.910;2022-11-18T16:44:15;-1.30;99.90
25811;DHT22;13645;52.460;13.910;2022-11-18T16:46:48;-1.30;99.90
25811;DHT22;13645;52.460;13.910;2022-11-18T16:49:17;-1.30;99.90
25811;DHT22;13645;52.460;13.910;2022-11-18T16:51:46;-1.40;99.90
25811;DHT22;13645;52.460;13.910;2022-11-18T16:54:21;-1.40;99.90
25811;DHT22;13645;52.460;13.910;2022-11-18T16:56:49;-1.40;99.90
25811;DHT22;13645;52.460;13.910;2022-11-18T16:59:19;-1.50;99.90
25811;DHT22;13645;52.460;13.910;2022-11-18T17:01:51;-1.60;99.90
25811;DHT22;13645;52.460;13.910;2022-11-18T17:04:20;-1.60;99.90
25811;DHT22;13645;52.460;13.910;2022-11-18T17:06:46;-1.70;99.90
25811;DHT22;13645;52.460;13.910;2022-11-18T17:09:15;-1.70;99.90
25811;DHT22;13645;52.460;13.910;2022-11-18T17:11:43;-1.70;99.90
25811;DHT22;13645;52.460;13.910;2022-11-18T17:14:10;-1.70;99.90
25811;DHT22;13645;52.460;13.910;2022-11-18T17:16:38;-1.80;99.90
25811;DHT22;13645;52.460;13.910;2022-11-18T17:19:05;-1.80;99.90
25811;DHT22;13645;52.460;13.910;2022-11-18T17:21:37;-1.80;99.90
25811;DHT22;13645;52.460;13.910;2022-11-18T17:24:05;-1.80;99.90
25811;DHT22;13645;52.460;13.910;2022-11-18T17:26:32;-1.80;99.90
25811;DHT22;13645;52.460;13.910;2022-11-18T17:28:59;-1.90;99.90
25811;DHT22;13645;52.460;13.910;2022-11-18T17:31:25;-1.90;99.90
25811;DHT22;13645;52.460;13.910;2022-11-18T17:33:54;-1.90;99.90
25811;DHT22;13645;52.460;13.910;2022-11-18T17:36:23;-1.90;99.90
25811;DHT22;13645;52.460;13.910;2022-11-18T17:38:53;-1.90;99.90
25811;DHT22;13645;52.460;13.910;2022-11-18T17:41:22;-2.00;99.90
25811;DHT22;13645;52.460;13.910;2022-11-18T17:44:09;-2.00;99.90
25811;DHT22;13645;52.460;13.910;2022-11-18T17:46:36;-2.00;99.90
25811;DHT22;13645;52.460;13.910;2022-11-18T17:49:15;-2.00;99.90